createdAt,value
2023-12-23T00:02:03.966Z,9.91
2023-12-23T00:06:04.473Z,9.85
2023-12-23T00:10:05.114Z,9.79
2023-12-23T00:14:03.857Z,9.82
2023-12-23T00:17:43.440Z,9.82
2023-12-23T00:18:05.002Z,9.81
2023-12-23T00:22:03.935Z,9.82
2023-12-23T00:26:04.278Z,9.80
2023-12-23T00:30:04.723Z,9.74
2023-12-23T00:34:04.568Z,9.73
2023-12-23T00:38:04.018Z,9.74
2023-12-23T00:42:04.103Z,9.73
2023-12-23T00:46:04.003Z,9.62
2023-12-23T00:50:04.910Z,9.68
2023-12-23T00:54:04.366Z,9.74
2023-12-23T00:58:03.898Z,9.70
2023-12-23T01:02:04.375Z,9.73
2023-12-23T01:06:04.324Z,9.80
2023-12-23T01:10:05.548Z,9.76
2023-12-23T01:14:03.992Z,9.71
2023-12-23T01:18:04.470Z,9.73
2023-12-23T01:22:04.095Z,9.75
2023-12-23T01:26:04.093Z,9.71
2023-12-23T01:34:04.082Z,9.64
2023-12-23T01:38:06.663Z,9.56
2023-12-23T01:42:04.661Z,9.50
2023-12-23T01:46:04.182Z,9.47
2023-12-23T01:50:05.684Z,9.54
2023-12-23T01:54:05.194Z,9.51
2023-12-23T01:58:04.713Z,9.58
2023-12-23T02:02:05.685Z,9.57
2023-12-23T02:06:04.786Z,9.56
2023-12-23T02:10:05.430Z,9.59
2023-12-23T02:14:13.010Z,9.57
2023-12-23T02:18:04.429Z,9.61
2023-12-23T02:22:04.687Z,9.71
2023-12-23T02:30:05.389Z,9.68
2023-12-23T02:34:04.183Z,9.76
2023-12-23T02:38:04.256Z,9.59
2023-12-23T02:42:04.705Z,9.67
2023-12-23T02:46:04.383Z,9.61
2023-12-23T02:50:04.717Z,9.57
2023-12-23T02:58:25.738Z,9.58
2023-12-23T03:02:04.255Z,9.65
2023-12-23T03:06:04.815Z,9.56
2023-12-23T03:10:04.654Z,9.54
2023-12-23T03:14:04.469Z,9.53
2023-12-23T03:18:04.783Z,9.59
2023-12-23T03:22:04.524Z,9.52
2023-12-23T03:26:05.881Z,9.54
2023-12-23T03:30:05.101Z,9.59
2023-12-23T03:34:04.492Z,9.57
2023-12-23T03:38:04.473Z,9.62
2023-12-23T03:42:04.384Z,9.60
2023-12-23T03:46:04.871Z,9.57
2023-12-23T03:54:04.817Z,9.54
2023-12-23T03:58:04.558Z,9.56
2023-12-23T04:02:04.846Z,9.59
2023-12-23T04:06:04.768Z,9.57
2023-12-23T04:10:04.871Z,9.66
2023-12-23T04:14:04.534Z,9.52
2023-12-23T04:18:04.967Z,9.51
2023-12-23T04:26:04.892Z,9.52
2023-12-23T04:30:05.951Z,9.49
2023-12-23T04:34:04.676Z,9.53
2023-12-23T04:42:04.904Z,9.56
2023-12-23T04:46:04.550Z,9.55
2023-12-23T04:50:05.997Z,9.51
2023-12-23T04:54:04.631Z,9.60
2023-12-23T04:58:04.695Z,9.51
2023-12-23T05:02:04.742Z,9.48
2023-12-23T05:06:05.060Z,9.43
2023-12-23T05:14:04.841Z,9.46
2023-12-23T05:18:05.325Z,9.42
2023-12-23T05:22:04.871Z,9.38
2023-12-23T05:26:04.620Z,9.43
2023-12-23T05:30:05.732Z,9.40
2023-12-23T05:34:04.715Z,9.30
2023-12-23T05:38:05.109Z,9.27
2023-12-23T05:42:05.145Z,9.36
2023-12-23T05:46:04.724Z,9.28
2023-12-23T05:50:05.444Z,9.25
2023-12-23T05:54:04.797Z,9.32
2023-12-23T05:58:04.690Z,9.39
2023-12-23T06:11:49.984Z,9.34
2023-12-23T06:17:48.701Z,9.44
2023-12-23T06:21:47.365Z,9.38
2023-12-23T06:25:47.466Z,9.48
2023-12-23T06:33:47.524Z,9.52
2023-12-23T06:37:47.416Z,9.58
2023-12-23T06:41:48.300Z,9.64
2023-12-23T06:45:47.417Z,9.61
2023-12-23T06:49:47.856Z,9.77
2023-12-23T06:53:48.020Z,9.73
2023-12-23T06:57:48.915Z,9.75
2023-12-23T07:05:47.821Z,9.76
2023-12-23T07:09:52.697Z,9.88
2023-12-23T07:13:47.932Z,9.91
2023-12-23T07:17:48.053Z,9.88
2023-12-23T07:21:53.136Z,9.89
2023-12-23T07:25:47.488Z,9.88
2023-12-23T07:33:47.874Z,9.87
2023-12-23T07:37:47.678Z,9.86
2023-12-23T07:41:47.686Z,9.81
2023-12-23T07:49:47.839Z,9.72
2023-12-23T07:53:47.740Z,9.66
2023-12-23T07:57:47.846Z,9.64
2023-12-23T08:01:47.802Z,9.62
2023-12-23T08:05:48.029Z,9.58
2023-12-23T08:09:47.655Z,9.53
2023-12-23T08:13:47.830Z,9.47
2023-12-23T08:17:49.721Z,9.48
2023-12-23T08:21:47.971Z,9.42
2023-12-23T08:25:47.841Z,9.41
2023-12-23T08:29:47.833Z,9.37
2023-12-23T08:33:48.013Z,9.36
2023-12-23T08:37:48.024Z,9.40
2023-12-23T08:41:47.742Z,9.37
2023-12-23T08:45:47.831Z,9.42
2023-12-23T08:49:47.871Z,9.44
2023-12-23T08:53:48.264Z,9.49
2023-12-23T08:57:47.859Z,9.50
2023-12-23T09:01:48.374Z,9.55
2023-12-23T09:05:48.010Z,9.57
2023-12-23T09:09:47.903Z,9.63
2023-12-23T09:13:47.937Z,9.61
2023-12-23T09:17:48.206Z,9.69
2023-12-23T09:21:47.854Z,9.63
2023-12-23T09:25:48.148Z,9.71
2023-12-23T09:29:48.082Z,9.67
2023-12-23T09:33:48.077Z,9.70
2023-12-23T09:37:48.145Z,9.71
2023-12-23T09:41:48.647Z,9.74
2023-12-23T09:45:49.929Z,9.75
2023-12-23T09:49:48.233Z,9.84
2023-12-23T09:53:51.393Z,9.83
2023-12-23T09:57:48.407Z,9.87
2023-12-23T10:01:48.129Z,9.91
2023-12-23T10:05:49.310Z,9.97
2023-12-23T10:13:48.132Z,10.04
2023-12-23T10:17:48.376Z,10.11
2023-12-23T10:21:48.873Z,10.14
2023-12-23T10:25:48.039Z,10.16
2023-12-23T10:29:59.913Z,10.18
2023-12-23T10:33:54.455Z,10.20
2023-12-23T10:37:52.863Z,10.19
2023-12-23T10:41:55.371Z,10.23
2023-12-23T10:45:48.661Z,10.29
2023-12-23T10:49:50.108Z,10.32
2023-12-23T10:53:52.055Z,10.30
2023-12-23T10:57:49.603Z,10.32
2023-12-23T11:01:48.304Z,10.30
2023-12-23T11:05:48.930Z,10.27
2023-12-23T11:09:51.189Z,10.31
2023-12-23T11:17:48.465Z,10.28
2023-12-23T11:21:48.197Z,10.37
2023-12-23T11:25:48.401Z,10.31
2023-12-23T11:29:48.703Z,10.40
2023-12-23T11:33:48.434Z,10.41
2023-12-23T11:41:48.586Z,10.44
2023-12-23T11:45:49.771Z,10.43
2023-12-23T11:49:48.360Z,10.41
2023-12-23T11:53:49.459Z,10.55
2023-12-23T11:57:48.710Z,10.68
2023-12-23T12:01:48.324Z,10.78
2023-12-23T12:05:53.553Z,10.85
2023-12-23T12:09:50.315Z,10.94
2023-12-23T12:13:48.957Z,11.03
2023-12-23T12:17:48.665Z,11.06
2023-12-23T12:21:48.696Z,11.07
2023-12-23T12:25:48.744Z,11.06
2023-12-23T12:29:48.419Z,11.03
2023-12-23T12:33:50.202Z,10.99
2023-12-23T12:37:49.081Z,10.95
2023-12-23T12:41:49.832Z,11.04
2023-12-23T12:45:48.661Z,11.08
2023-12-23T12:49:59.517Z,11.11
2023-12-23T12:53:49.135Z,11.08
2023-12-23T12:57:49.969Z,11.11
2023-12-23T13:01:48.652Z,11.16
2023-12-23T13:05:48.576Z,11.24
2023-12-23T13:09:48.572Z,11.29
2023-12-23T13:13:48.620Z,11.23
2023-12-23T13:17:48.763Z,11.19
2023-12-23T13:21:48.810Z,11.24
2023-12-23T13:25:48.671Z,11.23
2023-12-23T13:29:48.512Z,11.24
2023-12-23T13:33:48.762Z,11.17
2023-12-23T13:37:48.580Z,11.21
2023-12-23T13:41:48.736Z,11.22
2023-12-23T13:45:48.729Z,11.24
2023-12-23T13:49:49.049Z,11.27
2023-12-23T13:53:48.589Z,11.16
2023-12-23T13:57:48.669Z,11.09
2023-12-23T14:01:48.631Z,11.11
2023-12-23T14:05:48.948Z,11.09
2023-12-23T14:09:48.678Z,11.18
2023-12-23T14:13:48.825Z,11.05
2023-12-23T14:17:48.692Z,10.97
2023-12-23T14:21:49.104Z,10.93
2023-12-23T14:25:49.004Z,10.97
2023-12-23T14:29:49.591Z,10.92
2023-12-23T14:33:51.867Z,10.95
2023-12-23T14:37:51.071Z,11.00
2023-12-23T14:41:48.908Z,10.93
2023-12-23T14:45:48.833Z,10.91
2023-12-23T14:49:50.476Z,10.88
2023-12-23T15:01:49.069Z,10.82
2023-12-23T15:05:48.846Z,10.79
2023-12-23T15:09:53.709Z,10.77
2023-12-23T15:17:49.049Z,10.80
2023-12-23T15:21:48.812Z,10.70
2023-12-23T15:25:49.522Z,10.71
2023-12-23T15:29:49.272Z,10.70
2023-12-23T15:33:49.195Z,10.59
2023-12-23T15:37:49.049Z,10.60
2023-12-23T15:41:48.968Z,10.61
2023-12-23T15:45:48.883Z,10.59
2023-12-23T15:53:49.235Z,10.57
2023-12-23T15:57:48.920Z,10.51
2023-12-23T16:01:49.107Z,10.57
2023-12-23T16:09:49.146Z,10.46
2023-12-23T16:13:49.453Z,10.45
2023-12-23T16:17:49.294Z,10.41
2023-12-23T16:21:48.991Z,10.31
2023-12-23T16:25:49.134Z,10.33
2023-12-23T16:29:49.145Z,10.32
2023-12-23T16:33:49.458Z,10.30
2023-12-23T16:37:49.084Z,10.32
2023-12-23T16:41:50.212Z,10.25
2023-12-23T16:45:49.063Z,10.29
2023-12-23T16:49:49.233Z,10.22
2023-12-23T16:57:49.455Z,10.23
2023-12-23T17:01:49.350Z,10.19
2023-12-23T17:05:49.228Z,10.27
2023-12-23T17:09:49.157Z,10.17
2023-12-23T17:17:49.299Z,10.20
2023-12-23T17:21:49.256Z,10.12
2023-12-23T17:25:49.361Z,10.16
2023-12-23T17:37:49.482Z,10.15
2023-12-23T17:41:49.399Z,10.20
2023-12-23T17:45:49.378Z,10.22
2023-12-23T17:49:49.416Z,10.16
2023-12-23T17:53:49.496Z,10.13
2023-12-23T17:57:49.268Z,10.11
2023-12-23T18:01:49.454Z,10.12
2023-12-23T18:05:49.553Z,10.07
2023-12-23T18:09:50.521Z,10.14
2023-12-23T18:13:49.405Z,10.17
2023-12-23T18:17:49.688Z,10.13
2023-12-23T18:21:49.611Z,10.21
2023-12-23T18:26:00.695Z,10.27
2023-12-23T18:29:49.581Z,10.25
2023-12-23T18:33:49.788Z,10.34
2023-12-23T18:37:49.554Z,10.24
2023-12-23T18:41:49.718Z,10.27
2023-12-23T18:45:49.545Z,10.30
2023-12-23T18:49:49.515Z,10.34
2023-12-23T18:53:49.483Z,10.30
2023-12-23T18:57:49.583Z,10.41
2023-12-23T19:01:49.464Z,10.48
2023-12-23T19:05:49.685Z,10.43
2023-12-23T19:09:49.555Z,10.44
2023-12-23T19:13:49.592Z,10.41
2023-12-23T19:17:53.076Z,10.44
2023-12-23T19:21:49.544Z,10.40
2023-12-23T19:25:49.527Z,10.43
2023-12-23T19:29:49.671Z,10.44
2023-12-23T19:33:50.206Z,10.47
2023-12-23T19:37:51.685Z,10.39
2023-12-23T19:41:49.574Z,10.44
2023-12-23T19:45:50.307Z,10.39
2023-12-23T19:49:49.741Z,10.45
2023-12-23T19:53:50.896Z,10.42
2023-12-23T19:57:49.697Z,10.51
2023-12-23T20:01:50.033Z,10.44
2023-12-23T20:05:49.798Z,10.43
2023-12-23T20:09:49.921Z,10.41
2023-12-23T20:13:49.763Z,10.37
2023-12-23T20:17:49.894Z,10.39
2023-12-23T20:21:50.163Z,10.46
2023-12-23T20:25:49.800Z,10.45
2023-12-23T20:29:49.755Z,10.42
2023-12-23T20:33:49.969Z,10.47
2023-12-23T20:37:49.804Z,10.38
2023-12-23T20:41:50.065Z,10.47
2023-12-23T20:45:49.786Z,10.41
2023-12-23T20:49:49.927Z,10.39
2023-12-23T20:53:50.763Z,10.43
2023-12-23T20:57:49.809Z,10.48
2023-12-23T21:01:50.653Z,10.58
2023-12-23T21:05:49.941Z,10.61
2023-12-23T21:09:53.901Z,10.60
2023-12-23T21:13:49.850Z,10.55
2023-12-23T21:17:50.037Z,10.53
2023-12-23T21:21:49.884Z,10.56
2023-12-23T21:25:49.874Z,10.59
2023-12-23T21:29:50.203Z,10.50
2023-12-23T21:34:22.183Z,10.51
2023-12-23T21:37:49.911Z,10.46
2023-12-23T21:41:50.031Z,10.55
2023-12-23T21:45:50.013Z,10.54
2023-12-23T21:49:50.026Z,10.52
2023-12-23T21:57:50.114Z,10.53
2023-12-23T22:01:49.975Z,10.45
2023-12-23T22:05:50.511Z,10.53
2023-12-23T22:09:49.978Z,10.52
2023-12-23T22:13:50.324Z,10.62
2023-12-23T22:17:50.307Z,10.65
2023-12-23T22:21:50.282Z,10.55
2023-12-23T22:25:50.043Z,10.63
2023-12-23T22:29:50.123Z,10.57
2023-12-23T22:33:50.127Z,10.66
2023-12-23T22:37:50.048Z,10.57
2023-12-23T22:41:50.374Z,10.60
2023-12-23T22:45:50.308Z,10.57
2023-12-23T22:49:50.157Z,10.65
2023-12-23T22:53:50.152Z,10.62
2023-12-23T22:57:51.610Z,10.57
2023-12-23T23:01:50.143Z,10.52
2023-12-23T23:05:51.066Z,10.47
2023-12-23T23:09:50.204Z,10.49
2023-12-23T23:13:50.141Z,10.46
2023-12-23T23:17:50.705Z,10.54
2023-12-23T23:21:50.380Z,10.50
2023-12-23T23:25:50.220Z,10.51
2023-12-23T23:29:51.913Z,10.52
2023-12-23T23:33:50.555Z,10.57
2023-12-23T23:37:50.345Z,10.62
2023-12-23T23:41:50.325Z,10.53
2023-12-23T23:48:12.792Z,10.50
2023-12-23T23:49:50.319Z,10.62
2023-12-23T23:53:51.237Z,10.59
2023-12-23T23:57:50.281Z,10.63
